sensor_id;sensor_type;location;lat;lon;timestamp;P1;durP1;ratioP1;P2;durP2;ratioP2
4732;SDS011;2380;53.668;10.008;2022-11-11T00:01:33;10.00;;;3.37;;
4732;SDS011;2380;53.668;10.008;2022-11-11T00:04:03;10.70;;;2.97;;
4732;SDS011;2380;53.668;10.008;2022-11-11T00:06:32;7.70;;;3.10;;
4732;SDS011;2380;53.668;10.008;2022-11-11T00:09:05;33.27;;;5.20;;
4732;SDS011;2380;53.668;10.008;2022-11-11T00:11:35;12.40;;;3.80;;
4732;SDS011;2380;53.668;10.008;2022-11-11T00:14:05;10.63;;;4.43;;
4732;SDS011;2380;53.668;10.008;2022-11-11T00:16:35;11.70;;;4.43;;
4732;SDS011;2380;53.668;10.008;2022-11-11T00:19:17;25.30;;;4.93;;
4732;SDS011;2380;53.668;10.008;2022-11-11T00:21:58;13.03;;;4.37;;
4732;SDS011;2380;53.668;10.008;2022-11-11T00:24:43;16.83;;;4.90;;
4732;SDS011;2380;53.668;10.008;2022-11-11T00:27:25;16.37;;;4.70;;
4732;SDS011;2380;53.668;10.008;2022-11-11T00:29:54;13.17;;;4.77;;
4732;SDS011;2380;53.668;10.008;2022-11-11T00:32:24;11.63;;;5.57;;
4732;SDS011;2380;53.668;10.008;2022-11-11T00:34:57;11.67;;;4.33;;
4732;SDS011;2380;53.668;10.008;2022-11-11T00:37:39;8.73;;;3.93;;
4732;SDS011;2380;53.668;10.008;2022-11-11T00:40:12;7.00;;;3.90;;
4732;SDS011;2380;53.668;10.008;2022-11-11T00:42:42;8.57;;;5.57;;
4732;SDS011;2380;53.668;10.008;2022-11-11T00:45:12;15.17;;;5.67;;
4732;SDS011;2380;53.668;10.008;2022-11-11T00:47:42;16.23;;;5.23;;
4732;SDS011;2380;53.668;10.008;2022-11-11T00:50:24;14.17;;;5.10;;
4732;SDS011;2380;53.668;10.008;2022-11-11T00:53:08;15.33;;;5.50;;
4732;SDS011;2380;53.668;10.008;2022-11-11T00:55:41;14.13;;;4.90;;
4732;SDS011;2380;53.668;10.008;2022-11-11T00:58:10;13.70;;;5.83;;
4732;SDS011;2380;53.668;10.008;2022-11-11T01:00:42;12.43;;;5.50;;
4732;SDS011;2380;53.668;10.008;2022-11-11T01:03:12;10.73;;;5.60;;
4732;SDS011;2380;53.668;10.008;2022-11-11T01:05:41;22.07;;;5.67;;
4732;SDS011;2380;53.668;10.008;2022-11-11T01:08:11;10.40;;;4.60;;
4732;SDS011;2380;53.668;10.008;2022-11-11T01:10:43;12.13;;;5.17;;
4732;SDS011;2380;53.668;10.008;2022-11-11T01:13:14;12.53;;;4.50;;
4732;SDS011;2380;53.668;10.008;2022-11-11T01:15:46;17.13;;;5.20;;
4732;SDS011;2380;53.668;10.008;2022-11-11T01:18:17;16.37;;;5.13;;
4732;SDS011;2380;53.668;10.008;2022-11-11T01:20:56;13.33;;;5.40;;
4732;SDS011;2380;53.668;10.008;2022-11-11T01:23:26;13.50;;;5.50;;
4732;SDS011;2380;53.668;10.008;2022-11-11T01:26:02;8.87;;;4.53;;
4732;SDS011;2380;53.668;10.008;2022-11-11T01:28:33;15.50;;;4.87;;
4732;SDS011;2380;53.668;10.008;2022-11-11T01:31:03;15.30;;;4.53;;
4732;SDS011;2380;53.668;10.008;2022-11-11T01:33:34;10.50;;;5.13;;
4732;SDS011;2380;53.668;10.008;2022-11-11T01:36:05;10.13;;;5.00;;
4732;SDS011;2380;53.668;10.008;2022-11-11T01:38:36;13.53;;;4.90;;
4732;SDS011;2380;53.668;10.008;2022-11-11T01:41:10;10.63;;;4.43;;
4732;SDS011;2380;53.668;10.008;2022-11-11T01:43:54;13.20;;;5.53;;
4732;SDS011;2380;53.668;10.008;2022-11-11T01:46:27;12.40;;;4.60;;
4732;SDS011;2380;53.668;10.008;2022-11-11T01:49:03;16.07;;;5.10;;
4732;SDS011;2380;53.668;10.008;2022-11-11T01:51:48;14.40;;;5.07;;
4732;SDS011;2380;53.668;10.008;2022-11-11T01:54:21;11.03;;;4.17;;
4732;SDS011;2380;53.668;10.008;2022-11-11T01:56:58;15.03;;;5.23;;
4732;SDS011;2380;53.668;10.008;2022-11-11T01:59:31;12.73;;;5.23;;
4732;SDS011;2380;53.668;10.008;2022-11-11T02:02:02;19.23;;;5.30;;
4732;SDS011;2380;53.668;10.008;2022-11-11T02:04:36;10.90;;;5.97;;
4732;SDS011;2380;53.668;10.008;2022-11-11T02:07:18;18.80;;;4.67;;
4732;SDS011;2380;53.668;10.008;2022-11-11T02:09:48;6.60;;;3.37;;
4732;SDS011;2380;53.668;10.008;2022-11-11T02:12:21;11.53;;;5.40;;
4732;SDS011;2380;53.668;10.008;2022-11-11T02:15:03;16.20;;;4.37;;
4732;SDS011;2380;53.668;10.008;2022-11-11T02:17:34;12.57;;;4.70;;
4732;SDS011;2380;53.668;10.008;2022-11-11T02:20:04;9.70;;;4.00;;
4732;SDS011;2380;53.668;10.008;2022-11-11T02:22:37;8.63;;;4.63;;
4732;SDS011;2380;53.668;10.008;2022-11-11T02:25:12;11.73;;;5.40;;
4732;SDS011;2380;53.668;10.008;2022-11-11T02:27:46;21.73;;;4.37;;
4732;SDS011;2380;53.668;10.008;2022-11-11T02:30:19;23.03;;;5.53;;
4732;SDS011;2380;53.668;10.008;2022-11-11T02:32:49;15.63;;;6.47;;
4732;SDS011;2380;53.668;10.008;2022-11-11T02:35:20;13.57;;;4.60;;
4732;SDS011;2380;53.668;10.008;2022-11-11T02:37:52;14.53;;;5.90;;
4732;SDS011;2380;53.668;10.008;2022-11-11T02:40:25;11.60;;;5.60;;
4732;SDS011;2380;53.668;10.008;2022-11-11T02:42:57;16.83;;;6.40;;
4732;SDS011;2380;53.668;10.008;2022-11-11T02:45:27;10.93;;;5.37;;
4732;SDS011;2380;53.668;10.008;2022-11-11T02:47:57;17.63;;;6.07;;
4732;SDS011;2380;53.668;10.008;2022-11-11T02:50:26;14.00;;;5.20;;
4732;SDS011;2380;53.668;10.008;2022-11-11T02:52:55;11.03;;;5.30;;
4732;SDS011;2380;53.668;10.008;2022-11-11T02:55:28;13.77;;;5.50;;
4732;SDS011;2380;53.668;10.008;2022-11-11T02:57:57;11.60;;;5.30;;
4732;SDS011;2380;53.668;10.008;2022-11-11T03:00:27;15.57;;;5.63;;
4732;SDS011;2380;53.668;10.008;2022-11-11T03:02:56;11.53;;;5.07;;
4732;SDS011;2380;53.668;10.008;2022-11-11T03:05:26;18.50;;;5.90;;
4732;SDS011;2380;53.668;10.008;2022-11-11T03:07:55;16.13;;;5.77;;
4732;SDS011;2380;53.668;10.008;2022-11-11T03:10:28;16.20;;;5.30;;
4732;SDS011;2380;53.668;10.008;2022-11-11T03:12:57;18.67;;;4.80;;
4732;SDS011;2380;53.668;10.008;2022-11-11T03:15:27;15.00;;;5.47;;
4732;SDS011;2380;53.668;10.008;2022-11-11T03:17:56;12.10;;;4.70;;
4732;SDS011;2380;53.668;10.008;2022-11-11T03:20:23;16.50;;;6.00;;
4732;SDS011;2380;53.668;10.008;2022-11-11T03:23:06;13.20;;;5.70;;
4732;SDS011;2380;53.668;10.008;2022-11-11T03:25:39;14.73;;;5.57;;
4732;SDS011;2380;53.668;10.008;2022-11-11T03:28:10;8.63;;;4.63;;
4732;SDS011;2380;53.668;10.008;2022-11-11T03:30:41;7.63;;;3.33;;
4732;SDS011;2380;53.668;10.008;2022-11-11T03:33:11;18.23;;;4.27;;
4732;SDS011;2380;53.668;10.008;2022-11-11T03:35:41;16.37;;;4.80;;
4732;SDS011;2380;53.668;10.008;2022-11-11T03:38:11;20.93;;;5.60;;
4732;SDS011;2380;53.668;10.008;2022-11-11T03:40:45;16.20;;;5.13;;
4732;SDS011;2380;53.668;10.008;2022-11-11T03:43:16;11.70;;;4.83;;
4732;SDS011;2380;53.668;10.008;2022-11-11T03:45:47;14.13;;;5.30;;
4732;SDS011;2380;53.668;10.008;2022-11-11T03:48:17;14.13;;;5.37;;
4732;SDS011;2380;53.668;10.008;2022-11-11T03:50:46;12.00;;;4.47;;
4732;SDS011;2380;53.668;10.008;2022-11-11T03:53:17;12.07;;;5.00;;
4732;SDS011;2380;53.668;10.008;2022-11-11T03:55:50;19.97;;;5.10;;
4732;SDS011;2380;53.668;10.008;2022-11-11T03:58:20;15.67;;;4.97;;
4732;SDS011;2380;53.668;10.008;2022-11-11T04:00:49;12.47;;;5.80;;
4732;SDS011;2380;53.668;10.008;2022-11-11T04:03:19;10.33;;;4.97;;
4732;SDS011;2380;53.668;10.008;2022-11-11T04:06:01;15.10;;;6.37;;
4732;SDS011;2380;53.668;10.008;2022-11-11T04:08:43;11.47;;;4.63;;
4732;SDS011;2380;53.668;10.008;2022-11-11T04:11:29;15.43;;;6.30;;
4732;SDS011;2380;53.668;10.008;2022-11-11T04:14:00;12.90;;;4.93;;
4732;SDS011;2380;53.668;10.008;2022-11-11T04:16:44;14.57;;;4.93;;
4732;SDS011;2380;53.668;10.008;2022-11-11T04:19:13;11.23;;;4.80;;
4732;SDS011;2380;53.668;10.008;2022-11-11T04:21:55;9.87;;;4.73;;
4732;SDS011;2380;53.668;10.008;2022-11-11T04:24:25;12.53;;;4.83;;
4732;SDS011;2380;53.668;10.008;2022-11-11T04:27:10;14.93;;;4.33;;
4732;SDS011;2380;53.668;10.008;2022-11-11T04:29:40;12.20;;;5.87;;
4732;SDS011;2380;53.668;10.008;2022-11-11T04:32:08;13.93;;;5.03;;
4732;SDS011;2380;53.668;10.008;2022-11-11T04:34:51;9.77;;;4.57;;
4732;SDS011;2380;53.668;10.008;2022-11-11T04:37:21;15.67;;;7.33;;
4732;SDS011;2380;53.668;10.008;2022-11-11T04:39:51;13.80;;;4.00;;
4732;SDS011;2380;53.668;10.008;2022-11-11T04:42:36;13.13;;;5.37;;
4732;SDS011;2380;53.668;10.008;2022-11-11T04:45:06;16.20;;;6.70;;
4732;SDS011;2380;53.668;10.008;2022-11-11T04:47:52;11.10;;;6.10;;
4732;SDS011;2380;53.668;10.008;2022-11-11T04:50:26;16.93;;;6.47;;
4732;SDS011;2380;53.668;10.008;2022-11-11T04:52:56;13.03;;;5.97;;
4732;SDS011;2380;53.668;10.008;2022-11-11T04:55:26;16.30;;;6.37;;
4732;SDS011;2380;53.668;10.008;2022-11-11T04:58:11;16.97;;;6.10;;
4732;SDS011;2380;53.668;10.008;2022-11-11T05:00:40;14.13;;;5.80;;
4732;SDS011;2380;53.668;10.008;2022-11-11T05:03:10;17.43;;;6.23;;
4732;SDS011;2380;53.668;10.008;2022-11-11T05:05:44;12.40;;;4.77;;
4732;SDS011;2380;53.668;10.008;2022-11-11T05:08:27;11.57;;;5.57;;
4732;SDS011;2380;53.668;10.008;2022-11-11T05:11:09;17.97;;;6.20;;
4732;SDS011;2380;53.668;10.008;2022-11-11T05:13:41;10.70;;;6.20;;
4732;SDS011;2380;53.668;10.008;2022-11-11T05:16:24;16.43;;;7.03;;
4732;SDS011;2380;53.668;10.008;2022-11-11T05:19:08;24.73;;;7.07;;
4732;SDS011;2380;53.668;10.008;2022-11-11T05:21:50;13.93;;;6.20;;
4732;SDS011;2380;53.668;10.008;2022-11-11T05:24:21;10.63;;;6.30;;
4732;SDS011;2380;53.668;10.008;2022-11-11T05:27:15;13.10;;;6.67;;
4732;SDS011;2380;53.668;10.008;2022-11-11T05:29:48;14.90;;;6.83;;
4732;SDS011;2380;53.668;10.008;2022-11-11T05:32:18;13.23;;;6.57;;
4732;SDS011;2380;53.668;10.008;2022-11-11T05:34:49;14.17;;;6.53;;
4732;SDS011;2380;53.668;10.008;2022-11-11T05:37:18;19.40;;;7.77;;
4732;SDS011;2380;53.668;10.008;2022-11-11T05:39:48;17.77;;;6.43;;
4732;SDS011;2380;53.668;10.008;2022-11-11T05:42:17;12.27;;;6.83;;
4732;SDS011;2380;53.668;10.008;2022-11-11T05:44:49;13.63;;;6.30;;
4732;SDS011;2380;53.668;10.008;2022-11-11T05:47:19;15.87;;;6.70;;
4732;SDS011;2380;53.668;10.008;2022-11-11T05:49:49;15.43;;;6.43;;
4732;SDS011;2380;53.668;10.008;2022-11-11T05:52:18;11.40;;;5.83;;
4732;SDS011;2380;53.668;10.008;2022-11-11T05:54:48;19.63;;;5.53;;
4732;SDS011;2380;53.668;10.008;2022-11-11T05:57:17;18.03;;;6.30;;
4732;SDS011;2380;53.668;10.008;2022-11-11T05:59:46;15.83;;;5.43;;
4732;SDS011;2380;53.668;10.008;2022-11-11T06:02:18;17.43;;;6.80;;
4732;SDS011;2380;53.668;10.008;2022-11-11T06:04:48;19.03;;;7.90;;
4732;SDS011;2380;53.668;10.008;2022-11-11T06:07:18;12.43;;;7.90;;
4732;SDS011;2380;53.668;10.008;2022-11-11T06:09:48;15.70;;;7.27;;
4732;SDS011;2380;53.668;10.008;2022-11-11T06:12:17;17.23;;;7.27;;
4732;SDS011;2380;53.668;10.008;2022-11-11T06:14:46;13.53;;;7.47;;
4732;SDS011;2380;53.668;10.008;2022-11-11T06:17:18;16.90;;;8.20;;
4732;SDS011;2380;53.668;10.008;2022-11-11T06:19:48;19.97;;;7.87;;
4732;SDS011;2380;53.668;10.008;2022-11-11T06:22:17;9.53;;;4.73;;
4732;SDS011;2380;53.668;10.008;2022-11-11T06:25:07;24.80;;;8.60;;
4732;SDS011;2380;53.668;10.008;2022-11-11T06:27:50;28.63;;;8.83;;
4732;SDS011;2380;53.668;10.008;2022-11-11T06:30:19;19.50;;;9.17;;
4732;SDS011;2380;53.668;10.008;2022-11-11T06:33:11;16.80;;;7.87;;
4732;SDS011;2380;53.668;10.008;2022-11-11T06:35:42;22.53;;;10.70;;
4732;SDS011;2380;53.668;10.008;2022-11-11T06:38:12;16.80;;;9.00;;
4732;SDS011;2380;53.668;10.008;2022-11-11T06:40:42;28.97;;;10.77;;
4732;SDS011;2380;53.668;10.008;2022-11-11T06:43:11;14.80;;;7.20;;
4732;SDS011;2380;53.668;10.008;2022-11-11T06:45:41;22.73;;;7.83;;
4732;SDS011;2380;53.668;10.008;2022-11-11T06:48:13;29.20;;;10.87;;
4732;SDS011;2380;53.668;10.008;2022-11-11T06:50:42;23.17;;;10.23;;
4732;SDS011;2380;53.668;10.008;2022-11-11T06:53:13;22.03;;;9.57;;
4732;SDS011;2380;53.668;10.008;2022-11-11T06:55:43;24.00;;;10.53;;
4732;SDS011;2380;53.668;10.008;2022-11-11T06:58:13;14.67;;;8.63;;
4732;SDS011;2380;53.668;10.008;2022-11-11T07:00:45;20.33;;;10.40;;
4732;SDS011;2380;53.668;10.008;2022-11-11T07:03:18;19.33;;;10.90;;
4732;SDS011;2380;53.668;10.008;2022-11-11T07:05:51;29.67;;;11.57;;
4732;SDS011;2380;53.668;10.008;2022-11-11T07:08:24;24.30;;;10.20;;
4732;SDS011;2380;53.668;10.008;2022-11-11T07:10:54;24.00;;;10.83;;
4732;SDS011;2380;53.668;10.008;2022-11-11T07:13:26;25.87;;;12.00;;
4732;SDS011;2380;53.668;10.008;2022-11-11T07:15:55;25.93;;;11.73;;
4732;SDS011;2380;53.668;10.008;2022-11-11T07:18:27;25.47;;;11.67;;
4732;SDS011;2380;53.668;10.008;2022-11-11T07:20:57;26.70;;;12.53;;
4732;SDS011;2380;53.668;10.008;2022-11-11T07:23:26;31.73;;;13.17;;
4732;SDS011;2380;53.668;10.008;2022-11-11T07:25:55;25.90;;;12.43;;
4732;SDS011;2380;53.668;10.008;2022-11-11T07:28:25;24.63;;;13.43;;
4732;SDS011;2380;53.668;10.008;2022-11-11T07:30:54;28.93;;;12.30;;
4732;SDS011;2380;53.668;10.008;2022-11-11T07:33:23;26.87;;;13.47;;
4732;SDS011;2380;53.668;10.008;2022-11-11T07:35:55;28.70;;;13.33;;
4732;SDS011;2380;53.668;10.008;2022-11-11T07:38:25;33.43;;;14.40;;
4732;SDS011;2380;53.668;10.008;2022-11-11T07:40:54;28.30;;;13.70;;
4732;SDS011;2380;53.668;10.008;2022-11-11T07:43:24;28.77;;;13.40;;
4732;SDS011;2380;53.668;10.008;2022-11-11T07:45:53;45.87;;;13.17;;
4732;SDS011;2380;53.668;10.008;2022-11-11T07:48:22;32.97;;;12.57;;
4732;SDS011;2380;53.668;10.008;2022-11-11T07:50:55;28.37;;;14.27;;
4732;SDS011;2380;53.668;10.008;2022-11-11T07:53:24;22.57;;;12.17;;
4732;SDS011;2380;53.668;10.008;2022-11-11T07:55:54;27.37;;;13.07;;
4732;SDS011;2380;53.668;10.008;2022-11-11T07:58:23;29.07;;;10.57;;
4732;SDS011;2380;53.668;10.008;2022-11-11T08:00:53;26.57;;;12.47;;
4732;SDS011;2380;53.668;10.008;2022-11-11T08:03:23;26.03;;;11.40;;
4732;SDS011;2380;53.668;10.008;2022-11-11T08:05:56;28.73;;;13.63;;
4732;SDS011;2380;53.668;10.008;2022-11-11T08:08:26;28.30;;;13.80;;
4732;SDS011;2380;53.668;10.008;2022-11-11T08:10:55;32.70;;;14.57;;
4732;SDS011;2380;53.668;10.008;2022-11-11T08:13:25;29.77;;;14.67;;
4732;SDS011;2380;53.668;10.008;2022-11-11T08:16:07;31.80;;;13.97;;
4732;SDS011;2380;53.668;10.008;2022-11-11T08:18:37;31.97;;;14.33;;
4732;SDS011;2380;53.668;10.008;2022-11-11T08:21:09;40.10;;;16.77;;
4732;SDS011;2380;53.668;10.008;2022-11-11T08:23:39;32.80;;;15.17;;
4732;SDS011;2380;53.668;10.008;2022-11-11T08:26:28;29.20;;;13.57;;
4732;SDS011;2380;53.668;10.008;2022-11-11T08:28:57;35.67;;;15.50;;
4732;SDS011;2380;53.668;10.008;2022-11-11T08:31:27;38.60;;;17.93;;
4732;SDS011;2380;53.668;10.008;2022-11-11T08:33:57;49.47;;;14.50;;
4732;SDS011;2380;53.668;10.008;2022-11-11T08:36:29;36.90;;;15.63;;
4732;SDS011;2380;53.668;10.008;2022-11-11T08:38:58;29.87;;;14.53;;
4732;SDS011;2380;53.668;10.008;2022-11-11T08:41:28;35.67;;;14.77;;
4732;SDS011;2380;53.668;10.008;2022-11-11T08:43:57;40.07;;;17.57;;
4732;SDS011;2380;53.668;10.008;2022-11-11T08:46:27;41.33;;;15.40;;
4732;SDS011;2380;53.668;10.008;2022-11-11T08:48:57;32.07;;;14.23;;
4732;SDS011;2380;53.668;10.008;2022-11-11T08:51:29;30.40;;;12.80;;
4732;SDS011;2380;53.668;10.008;2022-11-11T08:54:09;40.00;;;18.40;;
4732;SDS011;2380;53.668;10.008;2022-11-11T08:56:39;33.63;;;18.10;;
4732;SDS011;2380;53.668;10.008;2022-11-11T08:59:09;39.80;;;16.67;;
4732;SDS011;2380;53.668;10.008;2022-11-11T09:01:38;37.70;;;17.10;;
4732;SDS011;2380;53.668;10.008;2022-11-11T09:04:08;29.57;;;14.97;;
4732;SDS011;2380;53.668;10.008;2022-11-11T09:07:00;31.60;;;16.87;;
4732;SDS011;2380;53.668;10.008;2022-11-11T09:09:30;32.63;;;15.93;;
4732;SDS011;2380;53.668;10.008;2022-11-11T09:11:59;30.47;;;14.93;;
4732;SDS011;2380;53.668;10.008;2022-11-11T09:14:29;35.07;;;16.00;;
4732;SDS011;2380;53.668;10.008;2022-11-11T09:16:58;37.93;;;17.23;;
4732;SDS011;2380;53.668;10.008;2022-11-11T09:19:28;37.73;;;16.37;;
4732;SDS011;2380;53.668;10.008;2022-11-11T09:21:57;30.63;;;12.83;;
4732;SDS011;2380;53.668;10.008;2022-11-11T09:24:29;35.50;;;17.20;;
4732;SDS011;2380;53.668;10.008;2022-11-11T09:26:59;32.97;;;16.70;;
4732;SDS011;2380;53.668;10.008;2022-11-11T09:29:28;30.37;;;15.63;;
4732;SDS011;2380;53.668;10.008;2022-11-11T09:31:58;38.73;;;17.30;;
4732;SDS011;2380;53.668;10.008;2022-11-11T09:34:27;36.03;;;18.10;;
4732;SDS011;2380;53.668;10.008;2022-11-11T09:36:57;42.83;;;16.73;;
4732;SDS011;2380;53.668;10.008;2022-11-11T09:39:27;40.23;;;18.20;;
4732;SDS011;2380;53.668;10.008;2022-11-11T09:42:01;37.47;;;17.90;;
4732;SDS011;2380;53.668;10.008;2022-11-11T09:44:40;37.33;;;17.70;;
4732;SDS011;2380;53.668;10.008;2022-11-11T09:47:16;26.37;;;13.37;;
4732;SDS011;2380;53.668;10.008;2022-11-11T09:49:56;36.17;;;16.03;;
4732;SDS011;2380;53.668;10.008;2022-11-11T09:52:28;29.57;;;16.27;;
4732;SDS011;2380;53.668;10.008;2022-11-11T09:55:04;37.70;;;16.93;;
4732;SDS011;2380;53.668;10.008;2022-11-11T09:57:38;22.87;;;11.23;;
4732;SDS011;2380;53.668;10.008;2022-11-11T10:00:13;34.63;;;17.43;;
4732;SDS011;2380;53.668;10.008;2022-11-11T10:02:49;30.20;;;15.03;;
4732;SDS011;2380;53.668;10.008;2022-11-11T10:05:21;41.73;;;13.90;;
4732;SDS011;2380;53.668;10.008;2022-11-11T10:07:54;33.20;;;17.00;;
4732;SDS011;2380;53.668;10.008;2022-11-11T10:10:29;33.80;;;17.37;;
4732;SDS011;2380;53.668;10.008;2022-11-11T10:13:03;58.27;;;19.03;;
4732;SDS011;2380;53.668;10.008;2022-11-11T10:15:42;38.70;;;16.17;;
4732;SDS011;2380;53.668;10.008;2022-11-11T10:18:22;34.23;;;16.33;;
4732;SDS011;2380;53.668;10.008;2022-11-11T10:20:58;40.73;;;18.10;;
4732;SDS011;2380;53.668;10.008;2022-11-11T10:23:28;63.73;;;31.37;;
4732;SDS011;2380;53.668;10.008;2022-11-11T10:26:04;59.80;;;26.23;;
4732;SDS011;2380;53.668;10.008;2022-11-11T10:28:38;59.97;;;28.07;;
4732;SDS011;2380;53.668;10.008;2022-11-11T10:31:12;54.17;;;22.90;;
4732;SDS011;2380;53.668;10.008;2022-11-11T10:33:44;39.90;;;20.30;;
4732;SDS011;2380;53.668;10.008;2022-11-11T10:36:19;53.80;;;26.20;;
4732;SDS011;2380;53.668;10.008;2022-11-11T10:38:50;52.70;;;26.20;;
4732;SDS011;2380;53.668;10.008;2022-11-11T10:41:26;27.37;;;15.33;;
4732;SDS011;2380;53.668;10.008;2022-11-11T10:44:00;27.77;;;14.47;;
4732;SDS011;2380;53.668;10.008;2022-11-11T10:46:31;29.77;;;14.20;;
4732;SDS011;2380;53.668;10.008;2022-11-11T10:49:07;35.33;;;18.70;;
4732;SDS011;2380;53.668;10.008;2022-11-11T10:51:41;33.90;;;18.03;;
4732;SDS011;2380;53.668;10.008;2022-11-11T10:54:14;50.13;;;21.47;;
4732;SDS011;2380;53.668;10.008;2022-11-11T10:56:50;31.33;;;13.60;;
4732;SDS011;2380;53.668;10.008;2022-11-11T10:59:24;35.53;;;18.63;;
4732;SDS011;2380;53.668;10.008;2022-11-11T11:01:56;41.73;;;22.30;;
4732;SDS011;2380;53.668;10.008;2022-11-11T11:04:30;46.73;;;19.27;;
4732;SDS011;2380;53.668;10.008;2022-11-11T11:07:02;61.60;;;25.77;;
4732;SDS011;2380;53.668;10.008;2022-11-11T11:09:35;50.63;;;22.60;;
4732;SDS011;2380;53.668;10.008;2022-11-11T11:12:10;32.27;;;14.60;;
4732;SDS011;2380;53.668;10.008;2022-11-11T11:14:43;33.57;;;17.87;;
4732;SDS011;2380;53.668;10.008;2022-11-11T11:17:16;32.00;;;16.13;;
4732;SDS011;2380;53.668;10.008;2022-11-11T11:20:05;47.30;;;24.50;;
4732;SDS011;2380;53.668;10.008;2022-11-11T11:22:43;33.23;;;15.30;;
4732;SDS011;2380;53.668;10.008;2022-11-11T11:25:14;34.93;;;15.83;;
4732;SDS011;2380;53.668;10.008;2022-11-11T11:27:48;51.23;;;19.40;;
4732;SDS011;2380;53.668;10.008;2022-11-11T11:30:19;30.43;;;14.37;;
4732;SDS011;2380;53.668;10.008;2022-11-11T11:32:56;43.00;;;21.13;;
4732;SDS011;2380;53.668;10.008;2022-11-11T11:35:31;27.37;;;15.70;;
4732;SDS011;2380;53.668;10.008;2022-11-11T11:38:03;29.47;;;15.90;;
4732;SDS011;2380;53.668;10.008;2022-11-11T11:43:33;44.67;;;21.50;;
4732;SDS011;2380;53.668;10.008;2022-11-11T11:46:04;36.97;;;18.50;;
4732;SDS011;2380;53.668;10.008;2022-11-11T11:49:00;36.60;;;17.90;;
4732;SDS011;2380;53.668;10.008;2022-11-11T11:51:39;27.33;;;14.03;;
4732;SDS011;2380;53.668;10.008;2022-11-11T11:57:08;24.10;;;11.60;;
4732;SDS011;2380;53.668;10.008;2022-11-11T11:59:45;27.23;;;16.20;;
4732;SDS011;2380;53.668;10.008;2022-11-11T12:02:30;30.47;;;14.37;;
4732;SDS011;2380;53.668;10.008;2022-11-11T12:05:10;34.60;;;19.13;;
4732;SDS011;2380;53.668;10.008;2022-11-11T12:07:47;31.30;;;13.87;;
4732;SDS011;2380;53.668;10.008;2022-11-11T12:10:28;32.60;;;16.50;;
4732;SDS011;2380;53.668;10.008;2022-11-11T12:13:11;24.73;;;13.80;;
4732;SDS011;2380;53.668;10.008;2022-11-11T12:15:51;27.23;;;14.63;;
4732;SDS011;2380;53.668;10.008;2022-11-11T12:18:34;24.43;;;12.20;;
4732;SDS011;2380;53.668;10.008;2022-11-11T12:21:12;21.03;;;11.13;;
4732;SDS011;2380;53.668;10.008;2022-11-11T12:23:50;26.40;;;13.40;;
4732;SDS011;2380;53.668;10.008;2022-11-11T12:26:27;28.60;;;14.40;;
4732;SDS011;2380;53.668;10.008;2022-11-11T12:29:13;25.70;;;15.00;;
4732;SDS011;2380;53.668;10.008;2022-11-11T12:31:56;40.40;;;16.90;;
4732;SDS011;2380;53.668;10.008;2022-11-11T12:34:37;27.13;;;15.70;;
4732;SDS011;2380;53.668;10.008;2022-11-11T12:37:20;26.80;;;11.47;;
4732;SDS011;2380;53.668;10.008;2022-11-11T12:40:02;27.00;;;14.33;;
4732;SDS011;2380;53.668;10.008;2022-11-11T12:42:47;27.10;;;13.60;;
4732;SDS011;2380;53.668;10.008;2022-11-11T12:45:26;26.73;;;16.03;;
4732;SDS011;2380;53.668;10.008;2022-11-11T12:48:05;26.73;;;14.63;;
4732;SDS011;2380;53.668;10.008;2022-11-11T12:50:48;31.07;;;14.80;;
4732;SDS011;2380;53.668;10.008;2022-11-11T12:53:32;33.17;;;15.00;;
4732;SDS011;2380;53.668;10.008;2022-11-11T12:56:08;30.27;;;15.00;;
4732;SDS011;2380;53.668;10.008;2022-11-11T12:58:45;30.43;;;15.30;;
4732;SDS011;2380;53.668;10.008;2022-11-11T13:01:19;27.40;;;13.80;;
4732;SDS011;2380;53.668;10.008;2022-11-11T13:03:59;24.80;;;14.57;;
4732;SDS011;2380;53.668;10.008;2022-11-11T13:06:41;27.03;;;15.60;;
4732;SDS011;2380;53.668;10.008;2022-11-11T13:09:21;27.80;;;15.50;;
4732;SDS011;2380;53.668;10.008;2022-11-11T13:11:59;32.90;;;15.27;;
4732;SDS011;2380;53.668;10.008;2022-11-11T13:17:24;26.87;;;14.43;;
4732;SDS011;2380;53.668;10.008;2022-11-11T13:19:57;30.27;;;16.20;;
4732;SDS011;2380;53.668;10.008;2022-11-11T13:22:29;30.13;;;15.07;;
4732;SDS011;2380;53.668;10.008;2022-11-11T13:25:01;35.87;;;15.53;;
4732;SDS011;2380;53.668;10.008;2022-11-11T13:27:36;26.43;;;12.67;;
4732;SDS011;2380;53.668;10.008;2022-11-11T13:30:16;26.20;;;14.33;;
4732;SDS011;2380;53.668;10.008;2022-11-11T13:33:02;28.67;;;14.33;;
4732;SDS011;2380;53.668;10.008;2022-11-11T13:35:37;23.90;;;13.50;;
4732;SDS011;2380;53.668;10.008;2022-11-11T13:38:10;28.10;;;14.10;;
4732;SDS011;2380;53.668;10.008;2022-11-11T13:40:51;22.30;;;12.17;;
4732;SDS011;2380;53.668;10.008;2022-11-11T13:43:22;30.80;;;12.97;;
4732;SDS011;2380;53.668;10.008;2022-11-11T13:45:55;26.23;;;12.40;;
4732;SDS011;2380;53.668;10.008;2022-11-11T13:48:27;27.10;;;13.10;;
4732;SDS011;2380;53.668;10.008;2022-11-11T13:53:52;22.03;;;12.50;;
4732;SDS011;2380;53.668;10.008;2022-11-11T13:56:22;26.00;;;13.70;;
4732;SDS011;2380;53.668;10.008;2022-11-11T13:58:53;22.77;;;12.40;;
4732;SDS011;2380;53.668;10.008;2022-11-11T14:01:23;28.10;;;13.27;;
4732;SDS011;2380;53.668;10.008;2022-11-11T14:03:58;23.20;;;12.50;;
4732;SDS011;2380;53.668;10.008;2022-11-11T14:06:47;30.30;;;12.70;;
4732;SDS011;2380;53.668;10.008;2022-11-11T14:12:23;25.03;;;12.50;;
4732;SDS011;2380;53.668;10.008;2022-11-11T14:15:03;23.70;;;12.67;;
4732;SDS011;2380;53.668;10.008;2022-11-11T14:17:34;15.93;;;9.40;;
4732;SDS011;2380;53.668;10.008;2022-11-11T14:23:22;23.20;;;10.93;;
4732;SDS011;2380;53.668;10.008;2022-11-11T14:28:50;20.30;;;10.33;;
4732;SDS011;2380;53.668;10.008;2022-11-11T14:34:29;18.80;;;11.50;;
4732;SDS011;2380;53.668;10.008;2022-11-11T14:37:20;21.17;;;10.67;;
4732;SDS011;2380;53.668;10.008;2022-11-11T14:39:57;17.83;;;10.00;;
4732;SDS011;2380;53.668;10.008;2022-11-11T14:54:26;21.70;;;11.70;;
4732;SDS011;2380;53.668;10.008;2022-11-11T14:57:03;17.90;;;10.33;;
4732;SDS011;2380;53.668;10.008;2022-11-11T14:59:35;20.37;;;12.00;;
4732;SDS011;2380;53.668;10.008;2022-11-11T15:02:10;19.50;;;10.90;;
4732;SDS011;2380;53.668;10.008;2022-11-11T15:04:45;18.30;;;10.10;;
4732;SDS011;2380;53.668;10.008;2022-11-11T15:07:24;20.00;;;10.70;;
4732;SDS011;2380;53.668;10.008;2022-11-11T15:13:17;26.20;;;13.20;;
4732;SDS011;2380;53.668;10.008;2022-11-11T15:16:06;24.33;;;12.17;;
4732;SDS011;2380;53.668;10.008;2022-11-11T15:21:32;21.37;;;10.00;;
4732;SDS011;2380;53.668;10.008;2022-11-11T15:26:51;22.40;;;11.50;;
4732;SDS011;2380;53.668;10.008;2022-11-11T15:32:24;17.80;;;10.30;;
4732;SDS011;2380;53.668;10.008;2022-11-11T15:35:06;31.67;;;14.50;;
4732;SDS011;2380;53.668;10.008;2022-11-11T15:37:44;18.03;;;10.30;;
4732;SDS011;2380;53.668;10.008;2022-11-11T15:40:17;21.10;;;11.30;;
4732;SDS011;2380;53.668;10.008;2022-11-11T15:42:47;22.17;;;11.60;;
4732;SDS011;2380;53.668;10.008;2022-11-11T15:45:24;16.67;;;10.03;;
4732;SDS011;2380;53.668;10.008;2022-11-11T15:47:56;20.87;;;11.43;;
4732;SDS011;2380;53.668;10.008;2022-11-11T15:50:30;18.50;;;10.40;;
4732;SDS011;2380;53.668;10.008;2022-11-11T15:53:02;20.63;;;11.47;;
4732;SDS011;2380;53.668;10.008;2022-11-11T15:55:33;23.10;;;11.10;;
4732;SDS011;2380;53.668;10.008;2022-11-11T15:58:08;21.70;;;10.87;;
4732;SDS011;2380;53.668;10.008;2022-11-11T16:00:41;18.80;;;10.57;;
4732;SDS011;2380;53.668;10.008;2022-11-11T16:03:12;20.17;;;10.37;;
4732;SDS011;2380;53.668;10.008;2022-11-11T16:05:43;22.97;;;10.73;;
4732;SDS011;2380;53.668;10.008;2022-11-11T16:08:14;19.13;;;11.20;;